Amboy, Indiana
Current Conditions -  °F | °C
As of 5:55 PM on Monday 22 Dec 2014 (Local Time) from KOKK Reporting Station
Overcast Overcast  
Wind Chill: 32°   Ceiling: 3000
Heat Index: 39°   Visibility: 7mi
Dew Point: 36°   Wind: 12mph
Humidity: 87%   Direction: 120°ESE
Pressure: 29.76"   Gusts: NA
Location:  40.6°N, 85.93°W
Report Text: KOKK 222255Z AUTO 12010KT 7SM OVC030 04/02 A2976 RMK AO1
Loading
Personal Weather Stations






























Interactive Weather Map New forecast layout! Learn more

10-Day Weather Forecast

Advertisements
Track Severe Weather on mobile